Tiempo atmosférico en la estación meteorológica de Isaba/Izaba, Navarra (820 m.)



Fecha
DESCASC
Temp. máxima en grados centígrados (hora)
DESCASC
Temp. mínima en grados centígrados (hora)
DESCASC
Temp. media en grados centígrados
DESCASC
Racha de viento máxima en m/sg (hora)
DESCASC
Velocidad máxima media en intervalos de 10 minutos(hora)
DESCASC
Precipitaciones diarias en mm
DESCASC
Precipitaciones de 00:00 a 06:00 en mm
DESCASC
Precipitaciones de 06:00 a 12:00 en mm
DESCASC
Precipitaciones de 12:00 a 18:00 en mm
DESCASC
Precipitaciones de 18:00 a 24:00 en mm
DESCASC
16-01-2020 13.4 (14:00) -2.6 (08:40) 5.4 12.78 (21:30) 6.39 (22:30) 0 0 0 0 0
15-01-2020 11.3 (16:00) 2.3 (23:59) 6.8 13.61 (02:40) 6.67 (00:10) 0 0 0 0 0
14-01-2020 11.7 (15:20) -3.4 (03:10) 4.1 13.33 (20:40) 7.78 (20:40) 0 0 0 0 0
13-01-2020 10.5 (16:30) -5.6 (07:40) 2.5 8.33 (14:40) 5 (14:30) 0 0 0 0 0
12-01-2020 11.4 (15:40) -5.1 (-00:0) 3.1 4.72 (13:00) 2.22 (11:20) 0 0 0 0 0
11-01-2020 10.4 (14:40) -2.7 (-00:0) 3.8 7.78 (05:50) 4.17 (07:50) 0 0 0 0 0
10-01-2020 6.3 (15:30) 1.8 (00:00) 4.1 13.06 (12:20) 7.78 (16:20) 4.2 1.6 1.4 0.6 0.6
09-01-2020 13.8 (15:10) -2 (-00:0) 5.9 11.67 (14:30) 6.11 (12:30) 1.6 0 0 0 1.6
08-01-2020 15.8 (14:20) 0.4 (00:00) 8.1 7.5 (00:30) 3.61 (00:30) 0 0 0 0 0
07-01-2020 15.5 (15:10) -3 (-00:0) 6.3 11.11 (16:20) 6.39 (21:40) 0 0 0 0 0
06-01-2020 13.4 (15:00) -3.7 (-00:0) 4.8 8.33 (23:00) 4.17 (23:20) 0 0 0 0 0
05-01-2020 17.2 (15:00) -2 (-00:0) 7.6 7.78 (14:20) 5 (14:10) 0 0 0 0 0
04-01-2020 10 (13:20) 0.3 (00:00) 5.2 14.44 (13:40) 9.17 (14:10) 0 0 0 0 0
03-01-2020 11.2 (16:30) -2.4 (-00:0) 4.4 12.78 (15:20) 6.39 (15:10) 0 0 0 0 0
02-01-2020 11.8 (14:20) -3.7 (-00:0) 4.1 3.06 (02:20) 1.39 (02:20) 0 0 0 0 0
01-01-2020 9.7 (15:30) -4.2 (-00:0) 2.8 -- (--) -- (--) 0 0 0 0 0
31-12-2019 -- (--) -- (--) -- -- (--) -- (--) 0 0 0 0 0
30-12-2019 -- (--) -- (--) -- -- (--) -- (--) 0 0 0 0 0
29-12-2019 10.2 (15:00) -2.9 (-00:0) 3.6 3.89 (14:00) 1.67 (14:00) 0 0 0 0 0
28-12-2019 13.2 (14:50) -0.3 (00:00) 6.4 5 (00:40) 2.5 (13:30) 0 0 0 0 0
27-12-2019 12.5 (15:20) -3.3 (-00:0) 4.6 4.72 (22:40) 2.5 (22:40) 0 0 0 0 0
26-12-2019 9.4 (15:10) -1.3 (-00:0) 4 13.61 (14:10) 8.61 (14:00) 0 0 0 0 0
25-12-2019 14.3 (16:10) 0.7 (00:00) 7.5 3.06 (05:30) 1.94 (05:30) 0 0 0 0 0
24-12-2019 16.6 (14:20) 3.4 (00:00) 10 6.67 (18:00) 3.89 (16:00) 0.2 0.2 0 0 0
23-12-2019 9.6 (14:10) 3.5 (00:00) 6.6 5.28 (03:30) 2.78 (03:30) 4.4 3.4 0.4 0 0.6
22-12-2019 9.4 (11:40) 3.9 (00:00) 6.6 9.44 (00:30) 3.89 (00:30) 18 7.8 1.6 3.8 4.8
21-12-2019 11.4 (16:00) 3.7 (00:00) 7.5 17.5 (19:10) 6.94 (19:20) 10.8 2.4 0.4 3.6 4.4
20-12-2019 11 (04:10) 5.9 (00:00) 8.5 20.83 (00:20) 10 (00:20) 49.6 30 2.8 3.4 13.4

Gráficas

Temp. máximas Temp. mínimas Temp. medias Precipitaciones Rachas de viento máximas Velocidades máximas media en intervalos de 10 minutos

Datos horarios

Fecha y hora oficial Temperatura (ºC) Velocidad del viento (km/h) Dirección del viento Racha (km/h) Dirección de racha Precipitación (mm) Presión (hPa) Tendencia (hPa) Humedad (%)
2020-01-18 23:00:00 2.5 10 Norte 14 Norte 4.6 -- -- 99
2020-01-18 22:00:00 3.7 0 Calma 9 Sudoeste 0.6 -- -- 97
2020-01-18 21:00:00 4.4 8 Sudoeste 22 Sudoeste 1.2 -- -- 88
2020-01-18 20:00:00 6 4 Sudoeste 29 Sudoeste 0 -- -- 75
2020-01-18 19:00:00 6.6 18 Sudoeste 35 Sur 0 -- -- 69
2020-01-18 18:00:00 7 14 Sudoeste 33 Sur 0 -- -- 65
2020-01-18 17:00:00 7.5 9 Sur 33 Sudoeste 0 -- -- 60
2020-01-18 16:00:00 8.2 13 Sudoeste 28 Sudoeste 0 -- -- 49
2020-01-18 15:00:00 8.7 13 Sudoeste 39 Sudoeste 0 -- -- 47
2020-01-18 14:00:00 8.7 10 Sur 33 Sudoeste 0 -- -- 46
2020-01-18 13:00:00 7.6 11 Sur 25 Sudoeste 0 -- -- 56
2020-01-18 12:00:00 4.7 5 Sudeste 18 Sur 0 -- -- 87
2020-01-18 11:00:00 1.6 0 Calma 8 Nordeste 0 -- -- 100
2020-01-18 10:00:00 0.1 2 Norte 6 Norte 0 -- -- 100
2020-01-18 09:00:00 -0.3 0 Calma 2 Sudoeste 0 -- -- 100
2020-01-18 08:00:00 -0.4 0 Calma 5 Norte 0 -- -- 100
2020-01-18 07:00:00 -0.2 2 Norte 8 Noroeste 0 -- -- 100
2020-01-18 06:00:00 -0.1 3 Norte 10 Sur 0 -- -- 100
2020-01-18 05:00:00 -0.4 4 Noroeste 16 Norte 0 -- -- 100
2020-01-18 04:00:00 -0.7 3 Nordeste 8 Norte 0 -- -- 100
2020-01-18 03:00:00 -1 0 Calma 7 Nordeste 0 -- -- 100
2020-01-18 02:00:00 -1.1 4 Nordeste 14 Norte 0 -- -- 100
2020-01-18 01:00:00 -0.7 9 Norte 22 Norte 0 -- -- 100
2020-01-18 00:00:00 -0.4 6 Norte 26 Norte 0 -- -- 100
2020-01-17 23:00:00 0.2 0 Calma 15 Noroeste 0 -- -- 100
2020-01-17 22:00:00 0.5 5 Norte 24 Norte 0 -- -- 99
2020-01-17 21:00:00 1 8 Norte 18 Norte 0 -- -- 100
2020-01-17 20:00:00 1.2 7 Norte 16 Norte 0 -- -- 99
2020-01-17 19:00:00 2.1 5 Nordeste 23 Noroeste 0 -- -- 96
2020-01-17 18:00:00 3.2 2 Norte 19 Nordeste 0 -- -- 94
2020-01-17 17:00:00 4.9 5 Norte 15 Norte 0 -- -- 86
2020-01-17 16:00:00 4.9 6 Sudeste 32 Este 0.4 -- -- 88
2020-01-17 15:00:00 6.7 5 Norte 25 Norte 0 -- -- 91
2020-01-17 14:00:00 5.6 5 Este 17 Nordeste 0.2 -- -- 93
2020-01-17 13:00:00 4.4 7 Nordeste 18 Nordeste 1 -- -- 98
2020-01-17 12:00:00 3.8 7 Norte 31 Norte 2.4 -- -- 96
2020-01-17 11:00:00 5.6 4 Sur 9 Sudoeste 0.8 -- -- 96
2020-01-17 10:00:00 5.3 9 Sur 21 Sudoeste 2.8 -- -- 93
2020-01-17 09:00:00 5.9 4 Noroeste 14 Sudoeste 0.8 -- -- 92
2020-01-17 08:00:00 6.9 9 Sudoeste 18 Sudoeste 0 -- -- 82
2020-01-17 07:00:00 7.2 8 Sudoeste 21 Sudoeste 0 -- -- 80
2020-01-17 06:00:00 7.2 9 Sudoeste 21 Sur 0 -- -- 81
2020-01-17 05:00:00 6.9 8 Sudoeste 15 Oeste 0 -- -- 84
2020-01-17 04:00:00 7.1 3 Sudoeste 26 Sur 0 -- -- 85
2020-01-17 03:00:00 7 12 Sudoeste 33 Sur 1.2 -- -- 83
2020-01-17 02:00:00 8.1 20 Sur 41 Sudoeste 0.4 -- -- 75
2020-01-17 01:00:00 10 11 Sur 36 Sudeste 0 -- -- 61
2020-01-17 00:00:00 10.3 15 Sudoeste 36 Sur 0 -- -- 60
2020-01-16 23:00:00 10.8 23 Sudoeste 45 Sudoeste 0 -- -- 60
2020-01-16 22:00:00 10.9 21 Sur 46 Sudoeste 0 -- -- 61
2020-01-16 21:00:00 10.6 12 Sur 32 Sudoeste 0 -- -- 66
2020-01-16 20:00:00 10.8 14 Sur 32 Sur 0 -- -- 66
2020-01-16 19:00:00 11 17 Sudoeste 39 Sudoeste 0 -- -- 64
2020-01-16 18:00:00 11.1 11 Sudoeste 33 Sudoeste 0 -- -- 63
2020-01-16 17:00:00 11.5 15 Sudoeste 39 Sudoeste 0 -- -- 62
2020-01-16 16:00:00 11.6 11 Sur 31 Sudeste 0 -- -- 63
2020-01-16 15:00:00 11.3 12 Sur 34 Sudoeste 0 -- -- 66
2020-01-16 14:00:00 13.4 18 Sudoeste 35 Oeste 0 -- -- 56
2020-01-16 13:00:00 11.5 17 Sudoeste 38 Sudoeste 0 -- -- 60
2020-01-16 12:00:00 11.6 10 Sur 38 Sudoeste 0 -- -- 59
2020-01-16 11:00:00 5 5 Sudoeste 12 Oeste 0 -- -- 87
2020-01-16 10:00:00 -1.1 2 Este 8 Noroeste 0 -- -- 100
2020-01-16 09:00:00 -2.5 2 Este 5 Noroeste 0 -- -- 100
2020-01-16 08:00:00 -2.5 2 Norte 5 Norte 0 -- -- 100
2020-01-16 07:00:00 -2.4 3 Norte 5 Norte 0 -- -- 100
2020-01-16 06:00:00 -2 0 Calma 5 Norte 0 -- -- 100
2020-01-16 05:00:00 -1.8 3 Norte 6 Norte 0 -- -- 100
2020-01-16 04:00:00 -1.4 2 Norte 6 Norte 0 -- -- 100
2020-01-16 03:00:00 -1.2 4 Noroeste 8 Norte 0 -- -- 99
2020-01-16 02:00:00 -0.2 2 Noroeste 8 Noroeste 0 -- -- 97
2020-01-16 01:00:00 0.8 3 Norte 6 Norte 0 -- -- 96
2020-01-16 00:00:00 2.3 0 Calma 8 Norte 0 -- -- 93
2020-01-15 23:00:00 3.7 3 Norte 8 Noroeste 0 -- -- 87
2020-01-15 22:00:00 5.7 0 Calma 5 Noroeste 0 -- -- 80
2020-01-15 21:00:00 7 2 Sur 12 Sudoeste 0 -- -- 74
2020-01-15 20:00:00 8 8 Sudoeste 12 Sudoeste 0 -- -- 67
2020-01-15 19:00:00 8.7 6 Sur 13 Sudoeste 0 -- -- 63
2020-01-15 18:00:00 9.3 6 Sur 17 Sur 0 -- -- 58
2020-01-15 17:00:00 10 8 Sudoeste 24 Sudoeste 0 -- -- 55
2020-01-15 16:00:00 11.3 13 Sudoeste 29 Sudoeste 0 -- -- 50
2020-01-15 15:00:00 10.6 10 Sudoeste 31 Sudoeste 0 -- -- 52
2020-01-15 14:00:00 10.7 12 Sudoeste 31 Sudoeste 0 -- -- 50
2020-01-15 13:00:00 9.8 9 Sur 24 Sur 0 -- -- 53
2020-01-15 12:00:00 9.1 10 Sudoeste 22 Sur 0 -- -- 56
2020-01-15 11:00:00 8.5 9 Sudoeste 32 Sur 0 -- -- 56
2020-01-15 10:00:00 6.3 5 Sudoeste 22 Sur 0 -- -- 60
2020-01-15 09:00:00 5.7 12 Sur 37 Sudoeste 0 -- -- 59
2020-01-15 08:00:00 5.2 15 Sudoeste 33 Sur 0 -- -- 55
2020-01-15 07:00:00 6.5 9 Sudoeste 27 Sur 0 -- -- 54
2020-01-15 06:00:00 7.3 14 Sur 30 Sudoeste 0 -- -- 56
2020-01-15 05:00:00 7.2 12 Sur 31 Sudoeste 0 -- -- 53
2020-01-15 04:00:00 7.2 21 Sudoeste 38 Sur 0 -- -- 45
2020-01-15 03:00:00 6.9 18 Sur 49 Sur 0 -- -- 45
2020-01-15 02:00:00 6.9 23 Sudoeste 47 Sudoeste 0 -- -- 48
2020-01-15 01:00:00 6.4 8 Sur 40 Sudoeste 0 -- -- 46
2020-01-15 00:00:00 7.4 24 Sudoeste 46 Sudoeste 0 -- -- 41
2020-01-14 23:00:00 7.7 22 Sudoeste 43 Sudoeste 0 -- -- 38
2020-01-14 22:00:00 7.1 18 Sudoeste 46 Sudoeste 0 -- -- 44
2020-01-14 21:00:00 7.3 21 Sudoeste 48 Sudoeste 0 -- -- 46
2020-01-14 20:00:00 5.9 22 Sudoeste 38 Sudoeste 0 -- -- 56
2020-01-14 19:00:00 5.2 13 Sudoeste 21 Sudoeste 0 -- -- 61
2020-01-14 18:00:00 7.5 12 Sudoeste 23 Sudoeste 0 -- -- 51
2020-01-14 17:00:00 9.1 10 Sur 25 Sudoeste 0 -- -- 44
2020-01-14 16:00:00 11.3 9 Sur 35 Sudoeste 0 -- -- 36
2020-01-14 15:00:00 11.4 18 Sudoeste 42 Sudoeste 0 -- -- 38
2020-01-14 14:00:00 9.7 21 Sur 38 Sur 0 -- -- 41
2020-01-14 13:00:00 9.2 22 Sudoeste 37 Sudoeste 0 -- -- 40
2020-01-14 12:00:00 7.8 19 Sur 32 Sur 0 -- -- 42
2020-01-14 11:00:00 2.1 3 Sudeste 8 Sur 0 -- -- 74
2020-01-14 10:00:00 -2.2 0 Calma 5 Nordeste 0 -- -- 97
2020-01-14 09:00:00 -3.4 2 Norte 7 Noroeste 0 -- -- 96
2020-01-14 08:00:00 -3.2 4 Norte 10 Norte 0 -- -- 95
2020-01-14 07:00:00 -2.3 3 Sudeste 12 Norte 0 -- -- 92
2020-01-14 06:00:00 -2.5 2 Este 10 Norte 0 -- -- 94
2020-01-14 05:00:00 -2.3 2 Oeste 9 Norte 0 -- -- 94
2020-01-14 04:00:00 -2.7 2 Noroeste 14 Nordeste 0 -- -- 96
2020-01-14 03:00:00 -3.3 3 Norte 9 Norte 0 -- -- 96
2020-01-14 02:00:00 -3.3 3 Norte 8 Norte 0 -- -- 98
2020-01-14 01:00:00 -2.9 3 Nordeste 10 Noroeste 0 -- -- 97
2020-01-14 00:00:00 -2.7 0 Calma 9 Noroeste 0 -- -- 97
2020-01-13 23:00:00 -2.5 0 Calma 4 Sudeste 0 -- -- 97
2020-01-13 22:00:00 -2.4 2 Nordeste 6 Noroeste 0 -- -- 96
2020-01-13 21:00:00 -1.4 0 Calma 5 Norte 0 -- -- 93
2020-01-13 20:00:00 -0.7 0 Calma 10 Norte 0 -- -- 90
2020-01-13 19:00:00 0.5 0 Calma 10 Norte 0 -- -- 86
2020-01-13 18:00:00 1.7 4 Noroeste 10 Noroeste 0 -- -- 78
2020-01-13 17:00:00 6.2 3 Sudoeste 19 Sudoeste 0 -- -- 56
2020-01-13 16:00:00 9.4 12 Sur 25 Sur 0 -- -- 41
2020-01-13 15:00:00 9.3 13 Sur 30 Sur 0 -- -- 42
2020-01-13 14:00:00 9 13 Sur 23 Sur 0 -- -- 40
2020-01-13 13:00:00 5.8 0 Calma 8 Sur 0 -- -- 60
2020-01-13 12:00:00 2.6 0 Calma 3 Sudeste 0 -- -- 67
2020-01-13 11:00:00 -0.9 0 Calma 7 Norte 0 -- -- 85
2020-01-13 10:00:00 -3.5 2 Norte 8 Norte 0 -- -- 94
2020-01-13 09:00:00 -5.3 3 Norte 8 Noroeste 0 -- -- 97
2020-01-13 08:00:00 -5.6 2 Norte 7 Norte 0 -- -- 97
2020-01-13 07:00:00 -5.3 4 Norte 8 Norte 0 -- -- 96
2020-01-13 06:00:00 -5.1 6 Norte 9 Norte 0 -- -- 96
2020-01-13 05:00:00 -4.8 4 Norte 11 Norte 0 -- -- 95
2020-01-13 04:00:00 -4.7 4 Norte 8 Norte 0 -- -- 94
2020-01-13 03:00:00 -4.3 3 Norte 9 Norte 0 -- -- 92
2020-01-13 02:00:00 -3.8 5 Norte 9 Norte 0 -- -- 92
2020-01-13 01:00:00 -3.6 7 Norte 10 Noroeste 0 -- -- 94
2020-01-13 00:00:00 -3.4 3 Nordeste 10 Norte 0 -- -- 95
2020-01-12 23:00:00 -3 2 Nordeste 9 Norte 0 -- -- 95
2020-01-12 22:00:00 -2.6 2 Nordeste 5 Norte 0 -- -- 93
2020-01-12 21:00:00 -2.2 3 Norte 6 Noroeste 0 -- -- 92
2020-01-12 20:00:00 -1 0 Calma 11 Norte 0 -- -- 87
2020-01-12 19:00:00 -0.3 4 Norte 10 Norte 0 -- -- 84
2020-01-12 18:00:00 1.2 4 Noroeste 9 Noroeste 0 -- -- 79
2020-01-12 17:00:00 4.6 4 Noroeste 10 Noroeste 0 -- -- 64
2020-01-12 16:00:00 10.3 0 Calma 6 Sur 0 -- -- 47
2020-01-12 15:00:00 10.7 3 Sur 8 Sudoeste 0 -- -- 42
2020-01-12 14:00:00 9.6 0 Calma 12 Sudoeste 0 -- -- 47
2020-01-12 13:00:00 6.6 6 Sur 17 Sudoeste 0 -- -- 53
2020-01-12 12:00:00 3.3 5 Sur 14 Sudoeste 0 -- -- 71
2020-01-12 11:00:00 1.5 3 Noroeste 8 Norte 0 -- -- 80
2020-01-12 10:00:00 -3.3 2 Nordeste 12 Norte 0 -- -- 96
2020-01-12 09:00:00 -4.7 3 Nordeste 9 Nordeste 0 -- -- 99
2020-01-12 08:00:00 -4.8 4 Nordeste 9 Este 0 -- -- 99
2020-01-12 07:00:00 -4.8 3 Nordeste 6 Nordeste 0 -- -- 100
2020-01-12 06:00:00 -5 0 Calma 8 Noroeste 0 -- -- 100
2020-01-12 05:00:00 -4.6 0 Calma 6 Norte 0 -- -- 100
2020-01-12 04:00:00 -4.1 2 Nordeste 6 Nordeste 0 -- -- 100
2020-01-12 03:00:00 -3.8 2 Nordeste 6 Nordeste 0 -- -- 100
2020-01-12 02:00:00 -3.6 0 Calma 6 Nordeste 0 -- -- 100
2020-01-12 01:00:00 -3 2 Nordeste 10 Nordeste 0 -- -- 100
2020-01-12 00:00:00 -2.7 5 Norte 9 Nordeste 0 -- -- 100
2020-01-11 23:00:00 -2.3 5 Norte 9 Norte 0 -- -- 100
2020-01-11 22:00:00 -2.2 4 Norte 7 Norte 0 -- -- 100
2020-01-11 21:00:00 -1.8 2 Norte 4 Norte 0 -- -- 99
2020-01-11 20:00:00 -1.1 3 Norte 6 Norte 0 -- -- 98
2020-01-11 19:00:00 0.2 3 Norte 5 Norte 0 -- -- 95
2020-01-11 18:00:00 1.8 0 Calma 8 Noroeste 0 -- -- 91
2020-01-11 17:00:00 5.4 2 Oeste 12 Sur 0 -- -- 69
2020-01-11 16:00:00 8.2 6 Sur 13 Sur 0 -- -- 51
2020-01-11 15:00:00 9.8 8 Sur 17 Sur 0 -- -- 47
2020-01-11 14:00:00 9.8 4 Sur 10 Sur 0 -- -- 44
2020-01-11 13:00:00 8.2 3 Sur 7 Sur 0 -- -- 54
2020-01-11 12:00:00 6.7 0 Calma 4 Este 0 -- -- 62
2020-01-11 11:00:00 3.8 0 Calma 3 Este 0 -- -- 72
2020-01-11 10:00:00 -1.4 0 Calma 6 Norte 0 -- -- 99
2020-01-11 09:00:00 -1.5 4 Noroeste 22 Norte 0 -- -- 95
2020-01-11 08:00:00 0.1 13 Norte 27 Norte 0 -- -- 88
2020-01-11 07:00:00 1.4 9 Nordeste 24 Nordeste 0 -- -- 82
2020-01-11 06:00:00 1.5 8 Nordeste 28 Nordeste 0 -- -- 82
2020-01-11 05:00:00 0.1 6 Norte 12 Norte 0 -- -- 94
2020-01-11 04:00:00 -0.8 4 Norte 13 Norte 0 -- -- 97
2020-01-11 03:00:00 -0.4 4 Noroeste 15 Norte 0 -- -- 97
2020-01-11 02:00:00 0.5 6 Norte 15 Nordeste 0 -- -- 96
2020-01-11 01:00:00 1.4 8 Norte 18 Norte 0 -- -- 91
2020-01-11 00:00:00 2.6 9 Norte 32 Norte 0 -- -- 86
2020-01-10 23:00:00 3 14 Nordeste 37 Nordeste 0 -- -- 86
2020-01-10 22:00:00 3.3 18 Norte 46 Norte 0 -- -- 86
2020-01-10 21:00:00 3.1 17 Norte 43 Norte 0.2 -- -- 91
2020-01-10 20:00:00 3.2 14 Nordeste 41 Norte 0 -- -- 95
2020-01-10 19:00:00 3.2 17 Nordeste 37 Norte 0.4 -- -- 95
2020-01-10 18:00:00 3.5 16 Norte 33 Nordeste 0.2 -- -- 94
2020-01-10 17:00:00 4.3 22 Nordeste 41 Nordeste 0.2 -- -- 92
2020-01-10 16:00:00 5.3 18 Nordeste 38 Nordeste 0 -- -- 90
2020-01-10 15:00:00 5.6 20 Nordeste 39 Norte 0.2 -- -- 87
2020-01-10 14:00:00 4.8 18 Nordeste 40 Nordeste 0 -- -- 94
2020-01-10 13:00:00 5 15 Nordeste 47 Nordeste 0 -- -- 95
2020-01-10 12:00:00 4.1 24 Nordeste 39 Nordeste 0.2 -- -- 96
2020-01-10 11:00:00 3.3 22 Nordeste 34 Nordeste 0.6 -- -- 97
2020-01-10 10:00:00 2.8 22 Nordeste 31 Nordeste 0.2 -- -- 98
2020-01-10 09:00:00 2.2 9 Norte 24 Nordeste 0 -- -- 99
2020-01-10 08:00:00 2 12 Norte 29 Nordeste 0.2 -- -- 99
2020-01-10 07:00:00 2.6 15 Nordeste 31 Nordeste 0.2 -- -- 99
2020-01-10 06:00:00 2.8 12 Nordeste 22 Nordeste 0.2 -- -- 99
2020-01-10 05:00:00 3.1 11 Nordeste 28 Nordeste 0.2 -- -- 98
2020-01-10 04:00:00 3.4 7 Norte 23 Nordeste 0 -- -- 100
2020-01-10 03:00:00 3.5 6 Norte 16 Nordeste 0 -- -- 100
2020-01-10 02:00:00 3.6 8 Nordeste 14 Nordeste 0.4 -- -- 99
2020-01-10 01:00:00 3.7 7 Norte 16 Nordeste 0.8 -- -- 98
2020-01-10 00:00:00 4.4 5 Norte 23 Noroeste 1.4 -- -- 95
2020-01-09 23:00:00 5.6 15 Norte 26 Noroeste 0.2 -- -- 92
2020-01-09 22:00:00 5.8 0 Calma 9 Sudoeste 0 -- -- 89
2020-01-09 21:00:00 7 3 Sur 15 Sudoeste 0 -- -- 75
2020-01-09 20:00:00 8.5 6 Sudoeste 14 Sur 0 -- -- 62
2020-01-09 19:00:00 9.1 9 Sur 30 Sudoeste 0 -- -- 57
2020-01-09 18:00:00 10.5 17 Sudoeste 35 Sur 0 -- -- 51
2020-01-09 17:00:00 11.3 15 Sudoeste 33 Sudoeste 0 -- -- 52
2020-01-09 16:00:00 11.8 13 Sudoeste 37 Sudoeste 0 -- -- 52
2020-01-09 15:00:00 13.5 13 Sudoeste 42 Sudoeste 0 -- -- 48
2020-01-09 14:00:00 13.6 21 Sudoeste 38 Sudoeste 0 -- -- 48
2020-01-09 13:00:00 10.6 20 Sur 35 Sur 0 -- -- 54
2020-01-09 12:00:00 7.5 4 Sur 14 Sur 0 -- -- 72
2020-01-09 11:00:00 3.4 0 Calma 4 Nordeste 0 -- -- 94
2020-01-09 10:00:00 -1 0 Calma 6 Norte 0 -- -- 100
2020-01-09 09:00:00 -1.6 4 Este 8 Norte 0 -- -- 100
2020-01-09 08:00:00 -1.4 3 Norte 7 Norte 0 -- -- 100
2020-01-09 07:00:00 -1.3 3 Nordeste 8 Norte 0 -- -- 100
2020-01-09 06:00:00 -1.9 3 Nordeste 10 Noroeste 0 -- -- 100
2020-01-09 05:00:00 -1.6 2 Norte 5 Nordeste 0 -- -- 100
2020-01-09 04:00:00 -1.4 3 Nordeste 5 Norte 0 -- -- 100
2020-01-09 03:00:00 -1.3 2 Este 6 Noroeste 0 -- -- 100
2020-01-09 02:00:00 -0.8 0 Calma 9 Norte 0 -- -- 100
2020-01-09 01:00:00 -0.5 3 Norte 5 Norte 0 -- -- 99
2020-01-09 00:00:00 0.4 2 Norte 8 Noroeste 0 -- -- 99
2020-01-08 23:00:00 1.1 2 Norte 5 Norte 0 -- -- 97
2020-01-08 22:00:00 1.9 2 Norte 4 Noroeste 0 -- -- 96
2020-01-08 21:00:00 2.7 0 Calma 4 Noroeste 0 -- -- 94
2020-01-08 20:00:00 3.7 0 Calma 6 Noroeste 0 -- -- 91
2020-01-08 19:00:00 5.1 3 Norte 6 Norte 0 -- -- 86
2020-01-08 18:00:00 7.2 4 Noroeste 6 Sudeste 0 -- -- 77
2020-01-08 17:00:00 10.1 5 Sur 13 Sur 0 -- -- 64
2020-01-08 16:00:00 15.2 8 Sudoeste 19 Sur 0 -- -- 43
2020-01-08 15:00:00 15.4 12 Sudoeste 23 Sudoeste 0 -- -- 43
2020-01-08 14:00:00 15.1 11 Sur 25 Sudoeste 0 -- -- 40
2020-01-08 13:00:00 13.7 7 Sur 18 Sudoeste 0 -- -- 56
2020-01-08 12:00:00 10.4 4 Sur 10 Sur 0 -- -- 65
2020-01-08 11:00:00 7.2 2 Sur 4 Sur 0 -- -- 76
2020-01-08 10:00:00 2.5 2 Nordeste 8 Norte 0 -- -- 98
2020-01-08 09:00:00 2.1 3 Norte 9 Norte 0 -- -- 95
2020-01-08 08:00:00 2.7 4 Norte 9 Norte 0 -- -- 94
2020-01-08 07:00:00 3.1 3 Norte 11 Noroeste 0 -- -- 93
2020-01-08 06:00:00 3.9 5 Noroeste 10 Noroeste 0 -- -- 90
2020-01-08 05:00:00 5.8 5 Noroeste 17 Norte 0 -- -- 84
2020-01-08 04:00:00 8.1 12 Norte 24 Nordeste 0 -- -- 73
2020-01-08 03:00:00 10.1 11 Nordeste 24 Sudeste 0 -- -- 65
2020-01-08 02:00:00 10.1 10 Nordeste 25 Nordeste 0 -- -- 65
2020-01-08 01:00:00 10.5 10 Este 27 Este 0 -- -- 64
2020-01-08 00:00:00 9.6 8 Nordeste 24 Nordeste 0 -- -- 69
2020-01-07 23:00:00 8 14 Norte 30 Noroeste 0 -- -- 74
2020-01-07 22:00:00 8.9 13 Norte 38 Norte 0 -- -- 70
2020-01-07 21:00:00 7.3 13 Norte 33 Norte 0 -- -- 69
2020-01-07 20:00:00 8.9 13 Norte 27 Norte 0 -- -- 63
2020-01-07 19:00:00 9.3 15 Nordeste 32 Nordeste 0 -- -- 53
2020-01-07 18:00:00 10.2 10 Norte 28 Nordeste 0 -- -- 52
2020-01-07 17:00:00 11.9 17 Nordeste 40 Nordeste 0 -- -- 38
2020-01-07 16:00:00 14.8 19 Nordeste 37 Nordeste 0 -- -- 28
2020-01-07 15:00:00 15.4 15 Nordeste 31 Nordeste 0 -- -- 25
2020-01-07 14:00:00 11.2 6 Sudoeste 18 Sur 0 -- -- 53
2020-01-07 13:00:00 7.6 9 Sudoeste 14 Sudoeste 0 -- -- 58
2020-01-07 12:00:00 6.9 0 Calma 4 Norte 0 -- -- 56
2020-01-07 11:00:00 2.5 3 Nordeste 6 Nordeste 0 -- -- 70
2020-01-07 10:00:00 -2.2 2 Este 5 Este 0 -- -- 91
2020-01-07 09:00:00 -2.9 3 Nordeste 9 Nordeste 0 -- -- 91
2020-01-07 08:00:00 -2.7 6 Nordeste 10 Nordeste 0 -- -- 91
2020-01-07 07:00:00 -2.7 3 Nordeste 11 Norte 0 -- -- 91
2020-01-07 06:00:00 -2.6 4 Norte 7 Nordeste 0 -- -- 92
2020-01-07 05:00:00 -2.5 0 Calma 9 Norte 0 -- -- 93
2020-01-07 04:00:00 -2.5 3 Nordeste 5 Nordeste 0 -- -- 94
2020-01-07 03:00:00 -2 0 Calma 8 Noroeste 0 -- -- 92
2020-01-07 02:00:00 -0.4 4 Norte 14 Norte 0 -- -- 82
2020-01-07 01:00:00 1.9 9 Norte 30 Noroeste 0 -- -- 71
2020-01-07 00:00:00 2.6 10 Norte 26 Nordeste 0 -- -- 70
2020-01-06 23:00:00 3.8 10 Norte 30 Norte 0 -- -- 67
2020-01-06 22:00:00 0.9 10 Norte 18 Noroeste 0 -- -- 81
2020-01-06 21:00:00 1 6 Norte 14 Nordeste 0 -- -- 86
2020-01-06 20:00:00 1.6 8 Nordeste 18 Nordeste 0 -- -- 89
2020-01-06 19:00:00 2.3 4 Norte 10 Noroeste 0 -- -- 85
2020-01-06 18:00:00 3.2 3 Norte 7 Noroeste 0 -- -- 81
2020-01-06 17:00:00 6.5 2 Oeste 9 Sur 0 -- -- 65
2020-01-06 16:00:00 10.8 4 Sur 8 Sur 0 -- -- 47
2020-01-06 15:00:00 13.4 2 Sudeste 13 Sur 0 -- -- 42
2020-01-06 14:00:00 11.1 5 Sur 14 Oeste 0 -- -- 48
2020-01-06 13:00:00 9.1 2 Sudeste 5 Sur 0 -- -- 52
2020-01-06 12:00:00 6 0 Calma 6 Nordeste 0 -- -- 59
2020-01-06 11:00:00 2.5 0 Calma 4 Nordeste 0 -- -- 71
2020-01-06 10:00:00 -3.2 2 Este 8 Norte 0 -- -- 97